Location Isle ofWight, ISLE OF WIGHT, UK

ob UISISLE1 232015Z AUTO 22003G09KT CLR 16/16 A2977 RMK SLPNO 

2019.09.23 2015 UTC
Wind from the SW (215 degrees) at 3.5 MPH (3 KT) gusting to 10.4 MPH (9 KT)
Visibility    Mile(s)
Sky Conditions  clear
Temperature 61.4 F (16 C)
Dew Point 60.2 F (16 C)
Relative Humidity 96%
Pressure   29.774 in. Hg (1008 hPa)
Rain  0.01 in.
Daily Rain 0.346 in.

Station Name  Isle of Wight Weather
Longitude, Latitude  -1.27, 50.72
Elevation 45
Station URL http://www.isleofwightweather.co.uk
Software Type WeatherDisplay:10.37S